Time;durP1;ratioP1;P1;durP2;ratioP2;P2;SDS_P1;SDS_P2;PMS_P1;PMS_P2;Temp;Humidity;BMP_temperature;BMP_pressure;BME280_temperature;BME280_humidity;BME280_pressure;Samples;Min_cycle;Max_cycle;Signal;HPM_P1;HPM_P2
2021/09/16 00:02:10;;;;;;;5.62;4.60;;;;;;;25.07;42.81;101490.03;144994;569;5002;-74
2021/09/16 00:04:36;;;;;;;7.28;4.32;;;;;;;25.05;42.66;101491.84;144994;782;5002;-79
2021/09/16 00:07:04;;;;;;;4.87;4.10;;;;;;;25.03;42.42;101485.69;144994;604;5002;-75
2021/09/16 00:09:30;;;;;;;4.75;4.32;;;;;;;25.02;42.75;101491.91;144994;596;5002;-76
2021/09/16 00:11:56;;;;;;;4.87;4.15;;;;;;;25.01;42.90;101499.00;144994;569;5002;-79
2021/09/16 00:14:24;;;;;;;5.07;3.90;;;;;;;25.00;42.59;101494.56;144994;564;5002;-77
2021/09/16 00:16:50;;;;;;;4.20;3.80;;;;;;;24.96;42.31;101500.88;144994;645;5002;-78
2021/09/16 00:19:17;;;;;;;6.95;4.30;;;;;;;24.92;42.66;101497.38;144994;595;5002;-79
2021/09/16 00:21:43;;;;;;;4.68;4.28;;;;;;;24.91;42.74;101497.38;144994;565;5002;-78
2021/09/16 00:24:10;;;;;;;6.97;4.22;;;;;;;24.91;42.29;101500.03;144994;581;5002;-77
2021/09/16 00:26:36;;;;;;;4.97;4.18;;;;;;;24.91;42.27;101498.28;144994;637;5002;-76
2021/09/16 00:29:03;;;;;;;4.90;4.22;;;;;;;24.91;42.25;101503.59;144994;575;5002;-79
2021/09/16 00:31:29;;;;;;;4.47;3.75;;;;;;;24.91;42.14;101500.94;144994;574;5002;-78
2021/09/16 00:33:56;;;;;;;6.30;4.20;;;;;;;24.92;42.07;101502.69;144993;573;5002;-78
2021/09/16 00:36:22;;;;;;;6.37;4.22;;;;;;;24.92;42.41;101507.13;144994;600;5002;-77
2021/09/16 00:38:48;;;;;;;5.80;4.00;;;;;;;24.92;42.43;101502.69;144994;596;5002;-77
2021/09/16 00:41:16;;;;;;;5.47;3.67;;;;;;;24.94;42.10;101506.22;144994;719;5002;-77
2021/09/16 00:43:42;;;;;;;4.80;4.10;;;;;;;24.93;42.29;101507.09;144994;590;5002;-76
2021/09/16 00:46:09;;;;;;;5.25;3.87;;;;;;;24.92;42.22;101507.13;144994;606;5002;-76
2021/09/16 00:48:36;;;;;;;5.07;4.32;;;;;;;24.91;42.35;101500.94;144994;661;5002;-75
2021/09/16 00:51:04;;;;;;;4.97;4.28;;;;;;;24.91;41.86;101502.69;144994;626;5002;-74
2021/09/16 00:53:32;;;;;;;4.95;4.45;;;;;;;24.90;41.85;101506.28;144994;634;5002;-76
2021/09/16 00:56:01;;;;;;;7.47;4.35;;;;;;;24.89;41.90;101504.53;144994;589;5002;-77
2021/09/16 00:58:29;;;;;;;6.12;4.43;;;;;;;24.87;41.78;101501.87;144994;621;5002;-76
2021/09/16 01:00:57;;;;;;;5.32;4.50;;;;;;;24.84;41.73;101509.03;144994;619;5002;-76
2021/09/16 01:03:24;;;;;;;5.93;4.18;;;;;;;24.81;41.96;101513.47;144994;577;5002;-77
2021/09/16 01:05:51;;;;;;;5.70;4.43;;;;;;;24.79;42.20;101504.66;144994;696;5002;-79
2021/09/16 01:08:18;;;;;;;5.25;4.47;;;;;;;24.80;41.96;101513.50;144994;584;5002;-78
2021/09/16 01:10:45;;;;;;;6.03;4.18;;;;;;;24.79;41.83;101501.16;144994;578;5002;-79
2021/09/16 01:13:11;;;;;;;5.05;4.22;;;;;;;24.78;41.87;101499.38;144994;573;5002;-79
2021/09/16 01:15:38;;;;;;;4.87;3.95;;;;;;;24.74;41.74;101510.97;144994;565;5002;-78
2021/09/16 01:18:04;;;;;;;5.07;4.20;;;;;;;24.71;41.82;101513.69;144994;585;5002;-76
2021/09/16 01:20:31;;;;;;;5.12;4.10;;;;;;;24.70;41.98;101507.47;144994;567;5002;-77
2021/09/16 01:22:57;;;;;;;4.97;4.00;;;;;;;24.68;41.93;101506.62;144994;594;5002;-79
2021/09/16 01:25:29;;;;;;;5.78;4.05;;;;;;;24.68;41.79;101508.41;144994;571;5002;-78
2021/09/16 01:27:57;;;;;;;4.53;4.12;;;;;;;24.68;41.74;101511.06;144994;592;5002;-78
2021/09/16 01:30:25;;;;;;;7.10;3.95;;;;;;;24.67;41.79;101514.63;144994;618;5002;-79
2021/09/16 01:32:54;;;;;;;5.07;4.03;;;;;;;24.68;41.93;101521.69;144994;589;5002;-77
2021/09/16 01:35:22;;;;;;;5.18;4.00;;;;;;;24.67;41.96;101515.50;144994;650;5002;-77
2021/09/16 01:37:49;;;;;;;5.93;4.03;;;;;;;24.66;41.66;101512.84;144994;603;5002;-77
2021/09/16 01:40:15;;;;;;;4.90;3.95;;;;;;;24.65;41.51;101512.00;144994;628;5002;-78
2021/09/16 01:42:43;;;;;;;5.05;3.90;;;;;;;24.66;41.83;101515.50;144994;628;5002;-76
2021/09/16 01:45:17;;;;;;;6.10;3.70;;;;;;;24.64;41.70;101515.53;144994;573;5002;-78
2021/09/16 01:47:44;;;;;;;5.25;4.30;;;;;;;24.62;41.37;101518.25;144994;622;5002;-74
2021/09/16 01:50:14;;;;;;;4.82;4.43;;;;;;;24.62;41.28;101512.03;144994;574;5002;-76
2021/09/16 01:52:41;;;;;;;4.97;3.92;;;;;;;24.59;41.48;101507.69;144994;587;5002;-76
2021/09/16 01:55:08;;;;;;;4.60;4.20;;;;;;;24.59;41.48;101507.69;144994;574;5002;-78
2021/09/16 01:57:35;;;;;;;4.55;3.95;;;;;;;24.60;41.42;101505.88;144994;581;5002;-78
2021/09/16 02:00:07;;;;;;;5.47;4.22;;;;;;;24.59;41.17;101512.09;144994;630;5002;-79
2021/09/16 02:02:33;;;;;;;6.28;3.90;;;;;;;24.58;41.00;101508.56;144994;576;5002;-77
2021/09/16 02:05:00;;;;;;;5.35;4.22;;;;;;;24.58;41.02;101508.56;144994;599;5002;-77
2021/09/16 02:07:27;;;;;;;6.28;3.87;;;;;;;24.59;41.37;101501.47;144994;614;4567;-78
2021/09/16 02:09:54;;;;;;;6.97;3.83;;;;;;;24.58;40.91;101503.25;144994;628;4572;-77
2021/09/16 02:12:20;;;;;;;6.60;3.80;;;;;;;24.56;40.97;101498.81;144994;575;4572;-78
2021/09/16 02:14:47;;;;;;;6.68;5.50;;;;;;;24.56;40.80;101512.09;144992;572;6002;-77
2021/09/16 02:17:13;;;;;;;8.07;5.68;;;;;;;24.53;40.88;101501.53;144992;567;6002;-78
2021/09/16 02:19:40;;;;;;;5.40;4.90;;;;;;;24.52;41.23;101495.34;144992;589;6002;-78
2021/09/16 02:22:07;;;;;;;6.03;5.00;;;;;;;24.51;41.37;101496.25;144992;632;6002;-77
2021/09/16 02:24:33;;;;;;;6.90;5.78;;;;;;;24.50;40.89;101494.50;144992;646;6002;-78
2021/09/16 02:27:00;;;;;;;6.05;4.90;;;;;;;24.48;40.94;101501.59;144992;639;6002;-78
2021/09/16 02:29:26;;;;;;;5.78;4.35;;;;;;;24.47;41.24;101498.97;144992;578;6003;-78
2021/09/16 02:31:53;;;;;;;6.62;5.10;;;;;;;24.47;41.40;101498.97;144992;564;6002;-79
2021/09/16 02:34:19;;;;;;;5.50;4.10;;;;;;;24.45;41.42;101494.59;144992;630;6002;-79
2021/09/16 02:36:46;;;;;;;7.37;4.95;;;;;;;24.45;41.02;101499.03;144992;647;6002;-76
2021/09/16 02:39:12;;;;;;;7.07;4.65;;;;;;;24.42;41.16;101499.94;144991;585;6002;-78
2021/09/16 02:41:39;;;;;;;5.72;4.68;;;;;;;24.42;41.05;101501.72;144992;659;6002;-78
2021/09/16 02:44:05;;;;;;;7.25;4.70;;;;;;;24.39;41.48;101493.81;144992;578;6002;-78
2021/09/16 02:46:31;;;;;;;5.87;4.70;;;;;;;24.37;41.12;101493.84;144992;586;6002;-78
2021/09/16 02:48:58;;;;;;;5.55;4.87;;;;;;;24.38;41.08;101494.69;144992;591;6002;-78
2021/09/16 02:51:24;;;;;;;6.10;4.57;;;;;;;24.36;41.24;101496.50;144992;583;6002;-76
2021/09/16 02:53:51;;;;;;;5.20;4.35;;;;;;;24.35;41.12;101492.09;144992;591;6002;-77
2021/09/16 02:56:17;;;;;;;5.03;4.10;;;;;;;24.34;41.19;101491.22;144992;582;6002;-79
2021/09/16 02:58:44;;;;;;;6.30;4.62;;;;;;;24.34;41.65;101490.31;144992;565;6002;-78
2021/09/16 03:01:10;;;;;;;4.32;3.92;;;;;;;24.33;41.25;101496.56;144992;564;6002;-77
2021/09/16 03:03:36;;;;;;;4.65;4.25;;;;;;;24.32;41.72;101497.44;144992;583;6002;-77
2021/09/16 03:06:03;;;;;;;6.55;4.37;;;;;;;24.30;41.67;101494.81;144992;565;6002;-75
2021/09/16 03:08:29;;;;;;;5.15;4.65;;;;;;;24.30;41.77;101494.81;144992;603;6002;-78
2021/09/16 03:10:56;;;;;;;5.53;4.40;;;;;;;24.30;41.41;101500.12;144992;632;6002;-76
2021/09/16 03:13:22;;;;;;;5.10;4.37;;;;;;;24.29;41.52;101498.34;144992;563;6002;-78
2021/09/16 03:15:49;;;;;;;5.55;4.07;;;;;;;24.28;41.79;101499.28;144992;598;6002;-75
2021/09/16 03:18:15;;;;;;;5.05;4.12;;;;;;;24.27;41.83;101500.16;144992;601;6002;-76
2021/09/16 03:20:42;;;;;;;4.90;4.10;;;;;;;24.27;41.48;101505.47;144992;571;6002;-79
2021/09/16 03:23:08;;;;;;;5.97;4.57;;;;;;;24.24;41.61;101514.38;144991;633;6002;-78
2021/09/16 03:25:35;;;;;;;7.72;4.40;;;;;;;24.23;41.73;101515.25;144992;564;6002;-77
2021/09/16 03:28:01;;;;;;;5.75;5.10;;;;;;;24.23;41.64;101519.69;144992;585;6002;-78
2021/09/16 03:30:27;;;;;;;8.75;5.93;;;;;;;24.25;41.57;101525.84;144992;588;6002;-77
2021/09/16 03:32:54;;;;;;;12.90;6.80;;;;;;;24.24;41.87;101534.69;144992;585;6002;-78
2021/09/16 03:35:20;;;;;;;13.48;6.50;;;;;;;24.24;41.83;101545.31;144992;625;6002;-77
2021/09/16 03:37:47;;;;;;;11.57;7.28;;;;;;;24.20;41.92;101540.94;144992;605;6002;-77
2021/09/16 03:40:13;;;;;;;9.00;6.62;;;;;;;24.15;42.66;101543.66;144992;582;6002;-79
2021/09/16 03:42:40;;;;;;;9.15;6.75;;;;;;;24.08;42.51;101550.84;144992;605;6002;-77
2021/09/16 03:45:07;;;;;;;14.95;8.70;;;;;;;24.08;42.51;101547.28;144992;577;6002;-75
2021/09/16 03:47:34;;;;;;;12.02;8.05;;;;;;;24.07;42.78;101545.56;144992;597;6002;-76
2021/09/16 03:50:00;;;;;;;16.00;8.07;;;;;;;24.06;42.96;101544.66;144992;614;6002;-78
2021/09/16 03:52:27;;;;;;;9.02;5.82;;;;;;;24.04;42.77;101543.81;144992;570;6002;-74
2021/09/16 03:54:53;;;;;;;10.23;5.35;;;;;;;24.03;42.56;101550.00;144992;587;6002;-78
2021/09/16 03:57:20;;;;;;;9.35;5.78;;;;;;;24.00;42.37;101555.34;144992;598;6002;-74
2021/09/16 03:59:46;;;;;;;12.37;7.18;;;;;;;23.96;42.83;101544.78;144992;622;6002;-77
2021/09/16 04:02:13;;;;;;;11.38;7.62;;;;;;;23.95;42.48;101551.00;144992;572;6002;-78
2021/09/16 04:04:39;;;;;;;12.88;7.72;;;;;;;23.92;42.55;101551.03;144992;606;6002;-77
2021/09/16 04:07:06;;;;;;;10.55;7.18;;;;;;;23.92;42.71;101546.59;144991;630;6002;-77
2021/09/16 04:09:32;;;;;;;14.05;7.30;;;;;;;23.91;43.25;101539.56;144992;652;6002;-77
2021/09/16 04:11:59;;;;;;;12.02;7.00;;;;;;;23.91;43.35;101536.91;144992;589;6002;-78
2021/09/16 04:14:26;;;;;;;16.73;7.62;;;;;;;23.92;43.42;101535.13;144992;590;6002;-75
2021/09/16 04:16:52;;;;;;;13.25;7.80;;;;;;;23.93;43.14;101531.59;144992;596;6002;-76
2021/09/16 04:19:19;;;;;;;13.05;7.95;;;;;;;23.94;43.14;101528.94;144992;574;6002;-77
2021/09/16 04:21:45;;;;;;;12.43;7.47;;;;;;;23.96;43.40;101528.87;144992;667;6002;-78
2021/09/16 04:24:13;;;;;;;14.95;6.93;;;;;;;23.95;43.26;101524.50;144992;608;6002;-88
2021/09/16 04:26:41;;;;;;;10.45;6.87;;;;;;;23.94;43.07;101518.31;144992;595;6002;-83
2021/09/16 04:29:08;;;;;;;8.95;6.35;;;;;;;23.96;43.48;101518.28;144992;565;6002;-83
2021/09/16 04:31:34;;;;;;;12.60;6.62;;;;;;;23.98;43.07;101506.75;144992;580;6002;-83
2021/09/16 04:34:01;;;;;;;11.25;6.90;;;;;;;24.01;43.13;101508.50;144992;575;6002;-86
2021/09/16 04:36:27;;;;;;;11.95;6.70;;;;;;;24.03;43.32;101512.00;144992;587;6002;-86
2021/09/16 04:38:54;;;;;;;14.13;6.93;;;;;;;24.05;43.38;101513.75;144992;595;6002;-84
2021/09/16 04:41:20;;;;;;;10.48;6.37;;;;;;;24.08;43.47;101508.41;144992;615;6002;-89
2021/09/16 04:43:47;;;;;;;10.93;6.95;;;;;;;24.13;43.30;101520.69;144992;648;6002;-86
2021/09/16 04:46:13;;;;;;;11.85;6.07;;;;;;;24.19;43.24;101518.84;144992;565;6002;-88
2021/09/16 04:48:40;;;;;;;12.10;5.20;;;;;;;24.23;43.57;101519.69;144992;584;6002;-85
2021/09/16 04:51:07;;;;;;;9.10;5.53;;;;;;;24.25;43.07;101529.38;144992;629;6002;-89
2021/09/16 04:53:33;;;;;;;10.95;5.05;;;;;;;24.20;43.51;101547.12;144992;578;6002;-85
2021/09/16 04:56:00;;;;;;;11.70;5.80;;;;;;;24.17;43.19;101552.47;144992;607;6002;-85
2021/09/16 04:58:26;;;;;;;9.68;6.15;;;;;;;24.21;43.16;101562.16;144992;579;6002;-85
2021/09/16 05:00:53;;;;;;;9.73;6.10;;;;;;;24.27;43.40;101569.13;144992;563;6002;-85
2021/09/16 05:03:19;;;;;;;14.35;7.40;;;;;;;24.32;43.23;101567.28;144992;605;6002;-87
2021/09/16 05:05:46;;;;;;;11.90;7.07;;;;;;;24.38;43.44;101566.34;144992;576;6002;-88
2021/09/16 05:08:13;;;;;;;15.55;7.43;;;;;;;24.42;43.45;101576.03;144992;591;6002;-85
2021/09/16 05:10:40;;;;;;;16.02;7.62;;;;;;;24.48;43.60;101585.66;144992;563;6002;-86
2021/09/16 05:13:06;;;;;;;17.02;7.93;;;;;;;24.52;43.48;101590.03;144992;627;6002;-88
2021/09/16 05:15:33;;;;;;;12.48;7.32;;;;;;;24.56;43.33;101581.09;144992;643;6002;-87
2021/09/16 05:17:59;;;;;;;13.10;7.53;;;;;;;24.59;43.28;101591.72;144992;574;6002;-91
2021/09/16 05:20:26;;;;;;;18.27;6.43;;;;;;;24.56;43.62;101591.72;144992;570;6002;-88
2021/09/16 05:22:52;;;;;;;10.40;6.20;;;;;;;24.55;43.81;101590.84;144992;647;6002;-87
2021/09/16 05:25:19;;;;;;;10.02;6.97;;;;;;;24.58;43.52;101592.63;144992;581;6002;-87
2021/09/16 05:27:45;;;;;;;12.50;7.10;;;;;;;24.60;43.41;101581.06;144992;578;6003;-86
2021/09/16 05:30:12;;;;;;;14.40;7.10;;;;;;;24.65;43.34;101581.00;144992;571;6002;-86
2021/09/16 05:32:39;;;;;;;11.95;6.93;;;;;;;24.63;43.15;101583.69;144992;644;6002;-87
2021/09/16 05:35:06;;;;;;;10.77;6.53;;;;;;;24.66;43.24;101584.53;144992;627;6003;-87
2021/09/16 05:37:33;;;;;;;10.18;6.93;;;;;;;24.69;43.02;101580.06;144992;593;6002;-87
2021/09/16 05:39:59;;;;;;;12.77;7.25;;;;;;;24.67;43.54;101579.19;144992;648;6002;-86
2021/09/16 05:42:26;;;;;;;13.32;8.38;;;;;;;24.68;43.23;101580.97;144992;567;6002;-87
2021/09/16 05:44:55;;;;;;;17.33;8.38;;;;;;;24.73;43.62;101587.06;144992;593;6002;-87
2021/09/16 05:47:22;;;;;;;12.25;7.72;;;;;;;24.78;43.77;101587.91;144992;563;6002;-88
2021/09/16 05:49:49;;;;;;;16.67;8.68;;;;;;;24.85;43.75;101580.72;144992;570;6002;-83
2021/09/16 05:52:17;;;;;;;18.98;8.13;;;;;;;24.93;43.32;101578.78;144992;600;6002;-85
2021/09/16 05:54:43;;;;;;;13.82;7.87;;;;;;;25.01;43.80;101583.09;144992;588;6002;-88
2021/09/16 05:57:10;;;;;;;16.77;8.77;;;;;;;25.08;43.71;101584.75;144992;571;6002;-88
2021/09/16 05:59:49;;;;;;;11.75;7.45;;;;;;;25.18;43.67;101589.00;144992;564;6002;-87
2021/09/16 06:02:24;;;;;;;15.85;7.65;;;;;;;25.30;43.46;101586.16;144992;577;6002;-90
2021/09/16 06:04:50;;;;;;;14.45;7.70;;;;;;;25.40;43.75;101581.56;144992;602;6002;-86
2021/09/16 06:07:17;;;;;;;12.43;7.32;;;;;;;25.51;43.64;101581.34;144992;589;6002;-88
2021/09/16 06:09:43;;;;;;;13.27;7.87;;;;;;;25.60;43.24;101588.31;144992;569;6002;-89
2021/09/16 06:12:09;;;;;;;11.25;7.37;;;;;;;25.66;43.12;101593.47;144992;578;6002;-91
2021/09/16 06:14:36;;;;;;;18.52;10.38;;;;;;;25.74;43.09;101593.31;144992;581;6002;-80
2021/09/16 06:17:03;;;;;;;21.62;15.20;;;;;;;25.82;43.53;101596.69;144992;837;6002;-81
2021/09/16 06:19:29;;;;;;;21.25;12.45;;;;;;;25.87;42.77;101585.06;144992;601;6002;-89
2021/09/16 06:21:56;;;;;;;19.17;11.93;;;;;;;25.94;43.46;101588.47;144992;738;6002;-86
2021/09/16 06:24:23;;;;;;;16.52;10.80;;;;;;;26.02;43.34;101585.69;144992;709;6002;-86
2021/09/16 06:26:49;;;;;;;15.63;9.88;;;;;;;26.10;43.02;101580.22;144992;912;6002;-85
2021/09/16 06:29:16;;;;;;;15.80;10.07;;;;;;;26.17;42.95;101587.16;144992;570;6002;-84
2021/09/16 06:31:42;;;;;;;15.00;10.05;;;;;;;26.24;43.19;101591.44;144992;571;6002;-87
2021/09/16 06:34:09;;;;;;;13.30;9.88;;;;;;;26.32;43.03;101597.47;144992;911;6002;-85
2021/09/16 06:36:35;;;;;;;12.23;8.30;;;;;;;26.38;43.24;101584.03;144992;912;6002;-81
2021/09/16 06:39:02;;;;;;;13.20;9.30;;;;;;;26.48;43.10;101594.47;144992;580;6002;-83
2021/09/16 06:41:28;;;;;;;13.70;8.50;;;;;;;26.56;43.16;101584.50;144992;843;6002;-80
2021/09/16 06:43:55;;;;;;;10.50;8.45;;;;;;;26.64;43.01;101585.19;144992;566;6002;-82
2021/09/16 06:46:21;;;;;;;12.60;7.90;;;;;;;26.73;42.92;101577.03;144992;911;6002;-84
2021/09/16 06:48:48;;;;;;;14.18;6.85;;;;;;;26.83;42.98;101582.16;144992;912;6002;-80
2021/09/16 06:51:14;;;;;;;12.35;6.85;;;;;;;26.88;42.88;101580.22;144992;569;6002;-83
2021/09/16 06:53:42;;;;;;;11.07;6.68;;;;;;;26.81;42.97;101579.50;144992;579;6002;-84
2021/09/16 06:56:08;;;;;;;11.25;6.50;;;;;;;26.84;42.77;101578.59;144992;880;6002;-78
2021/09/16 06:58:35;;;;;;;9.13;7.37;;;;;;;26.96;42.74;101580.91;144992;610;6002;-82
2021/09/16 07:01:01;;;;;;;11.88;6.87;;;;;;;26.92;41.02;101588.12;144992;598;6002;-80
2021/09/16 07:03:28;;;;;;;9.27;6.57;;;;;;;26.94;42.52;101583.63;144992;707;6002;-80
2021/09/16 07:05:54;;;;;;;11.20;7.20;;;;;;;27.03;42.47;101585.19;144992;851;6002;-80
2021/09/16 07:08:21;;;;;;;11.93;6.45;;;;;;;27.21;42.32;101586.50;144992;587;6002;-78
2021/09/16 07:10:47;;;;;;;14.05;8.20;;;;;;;27.34;42.14;101581.75;144992;571;6002;-82
2021/09/16 07:13:14;;;;;;;10.40;8.35;;;;;;;27.49;42.15;101583.16;144992;911;6002;-83
2021/09/16 07:15:40;;;;;;;11.00;6.93;;;;;;;27.64;42.03;101580.03;144992;747;6002;-88
2021/09/16 07:18:07;;;;;;;10.77;6.80;;;;;;;27.72;41.56;101582.50;144992;673;6002;-80
2021/09/16 07:20:34;;;;;;;10.13;8.00;;;;;;;27.82;41.70;101589.31;144992;626;6002;-80
2021/09/16 07:23:04;;;;;;;16.30;7.82;;;;;;;27.99;41.63;101586.19;144992;585;6002;-83
2021/09/16 07:25:31;;;;;;;13.45;8.13;;;;;;;28.14;41.77;101589.31;144992;623;6002;-77
2021/09/16 07:27:57;;;;;;;10.55;7.32;;;;;;;28.29;41.65;101591.53;144992;586;6002;-74
2021/09/16 07:30:24;;;;;;;14.95;7.30;;;;;;;28.47;41.22;101589.19;144992;576;6002;-81
2021/09/16 07:32:50;;;;;;;10.45;6.20;;;;;;;28.54;41.10;101583.63;144992;570;6002;-79
2021/09/16 07:35:17;;;;;;;8.93;6.78;;;;;;;28.56;38.63;101584.44;144992;587;6002;-80
2021/09/16 07:37:43;;;;;;;10.23;6.43;;;;;;;28.66;40.65;101589.53;144992;569;6002;-78
2021/09/16 07:40:11;;;;;;;12.45;6.45;;;;;;;28.84;40.82;101596.94;144992;571;6010;-81
2021/09/16 07:42:39;;;;;;;10.95;5.82;;;;;;;28.91;40.71;101593.13;144991;667;6002;-81
2021/09/16 07:45:07;;;;;;;11.35;5.97;;;;;;;28.90;40.12;101594.06;144992;571;6002;-76
2021/09/16 07:47:33;;;;;;;9.18;6.05;;;;;;;28.90;37.77;101595.84;144992;634;6002;-79
2021/09/16 07:50:00;;;;;;;9.85;6.12;;;;;;;29.02;40.24;101594.59;144992;618;6002;-77
2021/09/16 07:52:26;;;;;;;9.90;6.03;;;;;;;29.12;40.06;101598.69;144992;609;6002;-78
2021/09/16 07:54:52;;;;;;;9.80;6.00;;;;;;;29.14;39.92;101599.50;144992;679;6002;-79
2021/09/16 07:57:19;;;;;;;7.72;5.50;;;;;;;29.20;39.78;101599.31;144992;564;6002;-79
2021/09/16 07:59:47;;;;;;;9.85;5.72;;;;;;;28.89;39.94;101595.00;144992;611;6002;-79
2021/09/16 08:02:13;;;;;;;6.85;6.12;;;;;;;28.63;40.73;101587.81;144992;569;6002;-77
2021/09/16 08:04:40;;;;;;;6.87;6.03;;;;;;;28.40;41.58;101600.06;144992;595;6002;-76
2021/09/16 08:07:06;;;;;;;8.55;6.70;;;;;;;27.98;43.14;101588.88;144992;583;6002;-79
2021/09/16 08:09:33;;;;;;;10.77;6.43;;;;;;;27.86;44.27;101585.63;144992;591;6002;-76
2021/09/16 08:11:59;;;;;;;8.98;6.72;;;;;;;27.77;44.99;101590.34;144992;582;6002;-77
2021/09/16 08:14:25;;;;;;;7.75;6.45;;;;;;;27.84;44.04;101598.16;144992;596;6002;-75
2021/09/16 08:16:52;;;;;;;10.70;6.97;;;;;;;27.73;45.11;101594.91;144992;581;6002;-75
2021/09/16 08:19:18;;;;;;;9.07;6.32;;;;;;;27.48;45.63;101592.91;144992;564;6002;-77
2021/09/16 08:21:45;;;;;;;9.02;6.40;;;;;;;27.49;45.33;101586.69;144992;614;6002;-74
2021/09/16 08:24:11;;;;;;;8.35;6.30;;;;;;;27.22;45.94;101590.91;144992;585;6002;-73
2021/09/16 08:26:38;;;;;;;10.60;6.53;;;;;;;27.26;46.06;101589.03;144992;569;6002;-75
2021/09/16 08:29:04;;;;;;;8.95;6.53;;;;;;;27.12;47.84;101586.72;144993;564;6002;-79
2021/09/16 08:31:31;;;;;;;14.43;6.90;;;;;;;27.16;47.34;101588.41;144993;731;6002;-79
2021/09/16 08:33:57;;;;;;;12.27;6.50;;;;;;;27.12;46.74;101582.28;144993;582;6002;-78
2021/09/16 08:36:24;;;;;;;14.02;6.25;;;;;;;27.10;47.14;101577.91;144993;585;6002;-79
2021/09/16 08:38:50;;;;;;;8.43;5.93;;;;;;;26.96;48.17;101576.47;144993;732;6002;-80
2021/09/16 08:41:17;;;;;;;8.32;6.22;;;;;;;27.12;46.90;101586.72;144993;566;6003;-75
2021/09/16 08:43:44;;;;;;;9.52;7.18;;;;;;;27.17;47.19;101581.28;144993;588;6002;-78
2021/09/16 08:46:11;;;;;;;7.53;6.72;;;;;;;27.25;47.15;101581.94;144993;657;6002;-77
2021/09/16 08:48:37;;;;;;;9.18;6.32;;;;;;;27.22;47.34;101582.94;144993;574;6002;-78
2021/09/16 08:51:04;;;;;;;8.15;6.65;;;;;;;27.09;47.62;101587.69;144993;570;6002;-73
2021/09/16 08:53:31;;;;;;;7.95;6.68;;;;;;;26.92;48.86;101581.91;144993;590;6002;-78
2021/09/16 08:56:01;;;;;;;7.62;6.20;;;;;;;27.02;48.29;101588.75;144993;591;6002;-80
2021/09/16 08:58:30;;;;;;;7.95;6.80;;;;;;;27.03;47.83;101576.28;144993;636;6002;-79
2021/09/16 09:00:56;;;;;;;8.63;6.30;;;;;;;27.01;47.94;101573.66;144992;727;6002;-80
2021/09/16 09:03:23;;;;;;;8.50;6.90;;;;;;;26.95;47.77;101573.84;144992;597;6002;-80
2021/09/16 09:05:49;;;;;;;9.63;6.68;;;;;;;27.02;47.35;101574.56;144992;594;6002;-79
2021/09/16 09:08:25;;;;;;;9.38;7.30;;;;;;;27.06;47.22;101569.13;144991;596;6002;-78
2021/09/16 09:10:59;;;;;;;7.85;6.87;;;;;;;27.05;47.32;101566.50;144992;577;6002;-75
2021/09/16 09:13:33;;;;;;;9.18;6.35;;;;;;;27.05;47.72;101569.16;144992;572;6002;-77
2021/09/16 09:16:05;;;;;;;8.38;6.50;;;;;;;27.20;47.03;101552.75;144993;580;6002;-82
2021/09/16 09:18:45;;;;;;;8.00;6.50;;;;;;;27.10;47.41;101562.78;144993;586;6002;-78
2021/09/16 09:21:13;;;;;;;9.13;6.78;;;;;;;26.93;48.24;101562.34;144993;593;6002;-75
2021/09/16 09:23:55;;;;;;;10.48;7.62;;;;;;;27.09;47.59;101550.41;144993;573;6002;-81
2021/09/16 09:26:33;;;;;;;9.35;7.22;;;;;;;27.13;48.73;101553.84;144993;587;6000;-75
2021/09/16 09:29:28;;;;;;;10.18;7.12;;;;;;;27.13;48.00;101544.06;144993;651;6002;-77
2021/09/16 09:31:59;;;;;;;;;;;;;;;27.16;47.91;101548.44;144996;908;6004;-75
2021/09/16 09:34:36;;;;;;;7.03;6.32;;;;;;;27.12;47.95;101547.66;144998;584;5004;-81
2021/09/16 09:37:26;;;;;;;7.97;6.43;;;;;;;27.09;48.33;101545.06;144992;568;6004;-77
2021/09/16 09:39:59;;;;;;;8.45;7.12;;;;;;;27.20;48.14;101544.75;144993;571;6000;-80
2021/09/16 09:42:28;;;;;;;9.52;7.28;;;;;;;27.22;48.36;101545.63;144993;622;6002;-78
2021/09/16 09:45:06;;;;;;;9.60;6.10;;;;;;;27.37;47.70;101536.34;144993;678;6002;-76
2021/09/16 09:47:41;;;;;;;7.93;6.95;;;;;;;27.33;47.66;101535.56;144993;569;6002;-80
2021/09/16 09:50:33;;;;;;;6.93;6.22;;;;;;;27.38;47.35;101539.88;144993;585;6002;-77
2021/09/16 09:53:13;;;;;;;7.62;6.82;;;;;;;27.31;47.52;101540.06;144993;607;6004;-78
2021/09/16 09:55:41;;;;;;;6.78;6.20;;;;;;;27.23;47.70;101538.47;144993;573;6002;-76
2021/09/16 09:58:07;;;;;;;6.47;5.85;;;;;;;27.27;47.52;101526.84;144993;615;6002;-77
2021/09/16 10:00:34;;;;;;;6.93;6.10;;;;;;;27.20;47.38;101530.56;144993;569;6002;-78
2021/09/16 10:03:00;;;;;;;7.37;6.12;;;;;;;27.27;47.42;101525.03;144993;636;6002;-79
2021/09/16 10:05:30;;;;;;;10.25;5.95;;;;;;;27.45;46.92;101529.00;144993;581;6002;-78
2021/09/16 10:07:59;;;;;;;7.07;6.20;;;;;;;27.40;46.81;101532.72;144994;571;5002;-75
2021/09/16 10:10:34;;;;;;;8.77;5.80;;;;;;;27.46;46.11;101529.91;144994;581;5002;-77
2021/09/16 10:13:01;;;;;;;7.50;5.90;;;;;;;27.52;46.33;101527.03;144994;638;5002;-79
2021/09/16 10:15:27;;;;;;;8.85;5.60;;;;;;;27.73;45.27;101536.25;144994;614;5002;-73
2021/09/16 10:17:54;;;;;;;9.15;5.87;;;;;;;27.67;45.11;101526.59;144994;566;5002;-78
2021/09/16 10:20:26;;;;;;;8.27;5.47;;;;;;;27.64;44.81;101526.69;144994;607;5002;-74
2021/09/16 10:23:00;;;;;;;7.80;5.65;;;;;;;27.67;44.63;101536.41;144994;578;5002;-70
2021/09/16 10:25:28;;;;;;;7.18;5.68;;;;;;;27.67;44.10;101515.94;144994;573;5002;-75
2021/09/16 10:28:03;;;;;;;8.07;5.50;;;;;;;27.55;44.64;101526.09;144994;596;5002;-75
2021/09/16 10:30:39;;;;;;;6.40;5.35;;;;;;;27.48;44.71;101520.91;144994;569;5002;-76
2021/09/16 10:33:38;;;;;;;7.57;5.47;;;;;;;27.64;44.13;101512.50;144994;599;5002;-80
2021/09/16 10:36:07;;;;;;;9.93;6.90;;;;;;;27.60;44.10;101509.06;144994;595;5004;-80
2021/09/16 10:38:56;;;;;;;5.93;5.32;;;;;;;27.66;42.96;101502.66;144994;587;5004;-77
2021/09/16 10:41:34;;;;;;;9.00;5.87;;;;;;;27.73;43.91;101504.22;144994;586;5002;-77
2021/09/16 10:44:21;;;;;;;6.75;4.70;;;;;;;27.93;42.65;101498.28;144994;614;5002;-83
2021/09/16 10:46:51;;;;;;;6.00;5.20;;;;;;;27.96;42.35;101498.22;144994;575;5004;-75
2021/09/16 10:49:35;;;;;;;6.22;4.90;;;;;;;27.88;42.82;101492.22;144994;590;5004;-75
2021/09/16 10:52:30;;;;;;;7.07;5.30;;;;;;;27.85;42.04;101486.97;144993;569;5002;-83
2021/09/16 10:54:58;;;;;;;7.25;5.10;;;;;;;28.04;42.58;101476.63;144994;567;5004;-80
2021/09/16 10:57:37;;;;;;;6.07;4.60;;;;;;;28.01;42.85;101476.72;144994;596;5004;-73
2021/09/16 11:00:16;;;;;;;8.27;5.87;;;;;;;27.99;43.50;101467.91;144994;623;5004;-80
2021/09/16 11:03:03;;;;;;;6.57;4.72;;;;;;;28.26;42.00;101470.63;144994;587;5004;-73
2021/09/16 11:05:40;;;;;;;7.12;4.87;;;;;;;28.27;41.89;101467.91;144994;566;5002;-73
2021/09/16 11:08:07;;;;;;;8.82;4.55;;;;;;;28.25;41.73;101468.88;144994;659;5002;-71
2021/09/16 11:10:54;;;;;;;5.22;4.50;;;;;;;28.21;41.21;101474.31;144994;690;5002;-74
2021/09/16 11:13:40;;;;;;;7.43;4.95;;;;;;;28.22;41.37;101464.50;144994;723;5002;-76
2021/09/16 11:16:08;;;;;;;6.55;5.53;;;;;;;28.28;41.41;101466.97;144994;579;5002;-77
2021/09/16 11:18:34;;;;;;;5.97;4.90;;;;;;;28.21;41.28;101462.75;144994;667;5002;-76
2021/09/16 11:21:05;;;;;;;9.55;5.28;;;;;;;28.38;41.50;101459.53;144994;585;5002;-75
2021/09/16 11:23:50;;;;;;;7.85;4.70;;;;;;;28.22;41.34;101462.72;144994;578;5002;-77
2021/09/16 11:26:22;;;;;;;5.68;5.10;;;;;;;28.26;41.22;101454.63;144994;619;5002;-73
2021/09/16 11:29:08;;;;;;;6.00;4.87;;;;;;;28.38;41.17;101451.50;144994;679;5002;-76
2021/09/16 11:31:35;;;;;;;6.95;5.00;;;;;;;28.43;41.08;101457.59;144994;573;5002;-73
2021/09/16 11:34:09;;;;;;;7.97;5.35;;;;;;;28.40;41.25;101449.69;144994;569;5002;-74
2021/09/16 11:36:35;;;;;;;5.28;4.78;;;;;;;28.51;40.95;101441.31;144994;571;5002;-76
2021/09/16 11:39:19;;;;;;;6.40;4.93;;;;;;;28.46;41.18;101436.13;144994;600;5002;-73